Time;durP1;ratioP1;P1;durP2;ratioP2;P2;SDS_P1;SDS_P2;PMS_P1;PMS_P2;Temp;Humidity;BMP_temperature;BMP_pressure;BME280_temperature;BME280_humidity;BME280_pressure;Samples;Min_cycle;Max_cycle;Signal;HPM_P1;HPM_P2
2023/07/31 00:00:31;;;;;;;23.10;13.45;;;;;;;16.20;100.00;98587.50;5139545;28;20078;-64
2023/07/31 00:02:56;;;;;;;25.30;13.10;;;;;;;16.19;100.00;98583.97;5139889;28;20305;-64
2023/07/31 00:05:22;;;;;;;22.92;13.30;;;;;;;16.17;100.00;98588.34;5139427;28;20141;-63
2023/07/31 00:07:48;;;;;;;18.95;12.30;;;;;;;16.06;100.00;98587.69;5139819;27;20363;-62
2023/07/31 00:10:15;;;;;;;20.70;12.88;;;;;;;16.09;100.00;98581.31;5139619;28;20047;-61
2023/07/31 00:12:43;;;;;;;19.60;12.68;;;;;;;16.12;100.00;98572.19;5139543;28;20065;-61
2023/07/31 00:15:10;;;;;;;19.05;13.50;;;;;;;16.14;100.00;98575.34;5139584;28;20142;-63
2023/07/31 00:17:37;;;;;;;18.13;11.70;;;;;;;16.04;100.00;98577.03;5139468;28;20047;-61
2023/07/31 00:20:03;;;;;;;22.40;12.60;;;;;;;16.08;100.00;98579.75;5139366;28;20051;-62
2023/07/31 00:22:29;;;;;;;14.10;11.13;;;;;;;16.04;100.00;98579.81;5139255;28;20130;-60
2023/07/31 00:24:56;;;;;;;17.88;12.10;;;;;;;15.95;100.00;98579.53;5139513;28;20306;-62
2023/07/31 00:27:22;;;;;;;18.75;11.68;;;;;;;16.06;100.00;98563.59;5139061;28;20043;-61
2023/07/31 00:29:48;;;;;;;15.50;11.30;;;;;;;16.14;100.00;98564.28;5139554;28;20207;-61
2023/07/31 00:32:14;;;;;;;20.08;11.45;;;;;;;16.18;100.00;98573.28;5138992;28;20491;-62
2023/07/31 00:34:40;;;;;;;16.58;11.32;;;;;;;16.24;100.00;98579.94;5139464;28;20102;-63
2023/07/31 00:37:07;;;;;;;22.90;11.32;;;;;;;16.21;100.00;98584.31;5139106;27;20332;-62
2023/07/31 00:39:34;;;;;;;17.15;11.32;;;;;;;16.23;100.00;98590.22;5138887;28;20062;-62
2023/07/31 00:42:00;;;;;;;18.08;10.55;;;;;;;16.20;100.00;98593.03;5139134;28;20138;-62
2023/07/31 00:44:27;;;;;;;17.27;10.32;;;;;;;16.28;100.00;98588.19;5138741;27;20431;-62
2023/07/31 00:46:54;;;;;;;15.75;10.55;;;;;;;16.29;100.00;98596.03;5138939;28;20180;-63
2023/07/31 00:49:21;;;;;;;14.18;9.98;;;;;;;16.28;100.00;98591.72;5138690;28;20043;-61
2023/07/31 00:51:47;;;;;;;19.23;10.70;;;;;;;16.24;100.00;98589.00;5139145;28;20057;-64
2023/07/31 00:54:13;;;;;;;20.50;11.82;;;;;;;16.14;100.00;98597.44;5138540;28;20047;-62
2023/07/31 00:56:41;;;;;;;15.10;10.45;;;;;;;16.16;100.00;98593.09;5138755;28;20043;-62
2023/07/31 00:59:06;;;;;;;27.30;22.50;;;;;;;16.00;100.00;98596.44;5138507;28;20416;-64
2023/07/31 01:01:33;;;;;;;23.48;11.43;;;;;;;15.98;100.00;98598.84;5139043;28;20047;-64
2023/07/31 01:03:59;;;;;;;16.92;11.05;;;;;;;15.99;100.00;98596.84;5138420;28;20082;-63
2023/07/31 01:06:34;;;;;;;20.73;11.48;;;;;;;15.91;100.00;98592.63;5138625;27;20159;-61
2023/07/31 01:09:04;;;;;;;18.38;12.02;;;;;;;15.93;100.00;98585.50;5138738;28;20141;-63
2023/07/31 01:11:32;;;;;;;22.70;12.40;;;;;;;15.80;100.00;98587.22;5138301;28;20435;-61
2023/07/31 01:13:59;;;;;;;18.50;16.63;;;;;;;15.78;100.00;98578.56;5138512;28;20418;-61
2023/07/31 01:16:26;;;;;;;19.45;17.15;;;;;;;15.65;100.00;98574.75;5138413;28;20073;-61
2023/07/31 01:18:52;;;;;;;31.25;10.80;;;;;;;15.68;100.00;98566.44;5138658;28;20044;-61
2023/07/31 01:21:39;;;;;;;18.20;10.55;;;;;;;15.70;100.00;98561.28;5138219;28;20154;-62
2023/07/31 01:24:23;;;;;;;13.48;9.63;;;;;;;15.59;100.00;98577.16;5138693;28;20425;-63
2023/07/31 01:26:57;;;;;;;16.25;10.88;;;;;;;15.60;100.00;98578.75;5138114;28;20408;-63
2023/07/31 01:29:30;;;;;;;21.38;11.15;;;;;;;15.53;100.00;98576.09;5138076;28;20061;-62
2023/07/31 01:32:01;;;;;;;14.45;10.75;;;;;;;15.57;100.00;98576.81;5138406;28;20159;-64
2023/07/31 01:34:28;;;;;;;17.45;10.57;;;;;;;15.57;100.00;98578.81;5138043;28;20067;-63
2023/07/31 01:36:55;;;;;;;20.23;18.20;;;;;;;15.54;100.00;98567.38;5138166;27;20423;-63
2023/07/31 01:39:21;;;;;;;20.75;15.52;;;;;;;15.50;100.00;98577.69;5137971;28;20134;-61
2023/07/31 01:41:47;;;;;;;15.18;10.32;;;;;;;15.48;100.00;98560.72;5138305;28;20397;-62
2023/07/31 01:44:14;;;;;;;16.38;10.98;;;;;;;15.59;100.00;98565.34;5137838;28;20147;-62
2023/07/31 01:46:40;;;;;;;12.93;9.60;;;;;;;15.52;100.00;98572.50;5138258;28;20051;-61
2023/07/31 01:49:06;;;;;;;15.50;10.68;;;;;;;15.53;100.00;98581.59;5137706;28;20051;-63
2023/07/31 01:51:33;;;;;;;17.02;10.77;;;;;;;15.51;100.00;98590.28;5138007;28;20336;-61
2023/07/31 01:53:59;;;;;;;21.50;10.55;;;;;;;15.53;100.00;98578.84;5137882;28;20142;-62
2023/07/31 01:56:25;;;;;;;20.15;10.88;;;;;;;15.60;100.00;98578.75;5136924;27;20325;-64
2023/07/31 01:58:51;;;;;;;20.42;18.33;;;;;;;15.64;100.00;98576.72;5137972;28;20046;-63
2023/07/31 02:01:18;;;;;;;13.40;9.45;;;;;;;15.60;100.00;98586.28;5137583;28;20115;-63
2023/07/31 02:03:44;;;;;;;14.93;9.77;;;;;;;15.54;100.00;98594.22;5138006;28;20046;-64
2023/07/31 02:06:10;;;;;;;17.23;10.52;;;;;;;15.59;100.00;98599.28;5137422;27;20074;-64
2023/07/31 02:08:36;;;;;;;20.90;10.77;;;;;;;15.51;100.00;98598.56;5137953;28;20047;-63
2023/07/31 02:11:02;;;;;;;16.05;10.55;;;;;;;15.55;100.00;98593.00;5137450;28;20435;-62
2023/07/31 02:13:28;;;;;;;17.38;15.45;;;;;;;15.55;100.00;98606.81;5137740;28;20146;-61
2023/07/31 02:15:53;;;;;;;17.42;12.25;;;;;;;15.55;100.00;98598.53;5137377;28;20058;-61
2023/07/31 02:18:20;;;;;;;20.27;11.57;;;;;;;15.56;100.00;98602.88;5137837;28;20054;-62
2023/07/31 02:20:49;;;;;;;16.58;11.15;;;;;;;15.40;100.00;98608.19;5137617;28;20065;-62
2023/07/31 02:23:15;;;;;;;20.80;11.40;;;;;;;15.46;100.00;98596.28;5137514;28;20069;-64
2023/07/31 02:25:41;;;;;;;22.17;19.50;;;;;;;15.45;100.00;98604.97;5137602;28;20047;-64
2023/07/31 02:28:07;;;;;;;18.08;11.73;;;;;;;15.39;100.00;98615.66;5137410;28;20147;-62
2023/07/31 02:30:36;;;;;;;17.95;11.40;;;;;;;15.41;100.00;98607.00;5137483;28;20071;-62
2023/07/31 02:33:02;;;;;;;19.25;11.60;;;;;;;15.41;100.00;98609.75;5137131;28;20142;-63
2023/07/31 02:35:28;;;;;;;19.25;11.35;;;;;;;15.43;100.00;98619.19;5137446;28;20051;-63
2023/07/31 02:37:54;;;;;;;19.20;12.32;;;;;;;15.35;100.00;98627.97;5137054;27;20328;-63
2023/07/31 02:40:20;;;;;;;19.70;12.27;;;;;;;15.39;100.00;98610.16;5137573;28;20054;-63
2023/07/31 02:42:46;;;;;;;19.40;12.18;;;;;;;15.51;100.00;98614.38;5137055;28;20051;-63
2023/07/31 02:45:12;;;;;;;19.35;12.20;;;;;;;15.62;100.00;98619.78;5137564;28;20047;-61
2023/07/31 02:47:38;;;;;;;21.92;12.88;;;;;;;15.73;100.00;98632.31;5137249;28;20066;-63
2023/07/31 02:50:05;;;;;;;17.83;12.30;;;;;;;15.85;100.00;98636.50;5137180;28;20057;-63
2023/07/31 02:52:32;;;;;;;23.40;13.05;;;;;;;15.96;100.00;98645.47;5137224;28;20057;-61
2023/07/31 02:54:58;;;;;;;18.70;12.98;;;;;;;16.06;100.00;98665.91;5137034;28;20077;-62
2023/07/31 02:57:24;;;;;;;18.83;11.60;;;;;;;16.33;100.00;98668.72;5137145;28;20199;-64
2023/07/31 02:59:50;;;;;;;22.02;12.05;;;;;;;16.60;100.00;98690.09;5136921;28;20051;-63
2023/07/31 03:02:16;;;;;;;21.92;10.63;;;;;;;16.93;100.00;98716.13;5137158;28;20061;-62
2023/07/31 03:04:42;;;;;;;19.38;11.02;;;;;;;17.10;100.00;98766.91;5136749;28;20055;-63
2023/07/31 03:07:08;;;;;;;18.80;10.63;;;;;;;17.29;100.00;98804.97;5137049;27;20110;-63
2023/07/31 03:09:35;;;;;;;20.15;16.85;;;;;;;17.60;100.00;98821.56;5138984;28;20332;-63
2023/07/31 03:12:01;;;;;;;19.85;15.52;;;;;;;17.61;100.00;98848.84;5140813;28;20509;-63
2023/07/31 03:14:27;;;;;;;18.30;11.10;;;;;;;17.67;100.00;98862.25;5140047;28;20137;-64
2023/07/31 03:16:53;;;;;;;23.13;10.27;;;;;;;17.65;100.00;98868.97;5140720;28;20078;-63
2023/07/31 03:19:18;;;;;;;19.70;10.95;;;;;;;17.65;100.00;98870.97;5140157;28;20294;-63
2023/07/31 03:21:44;;;;;;;20.02;11.30;;;;;;;17.69;100.00;98873.69;5140384;28;20147;-61
2023/07/31 03:24:11;;;;;;;18.45;11.60;;;;;;;17.79;100.00;98875.53;5140443;28;20093;-61
2023/07/31 03:26:41;;;;;;;23.05;17.02;;;;;;;17.91;100.00;98877.72;5140212;28;20054;-63
2023/07/31 03:29:07;;;;;;;17.00;10.43;;;;;;;18.11;100.00;98875.00;5140278;28;20051;-61
2023/07/31 03:31:33;;;;;;;15.10;9.85;;;;;;;18.02;100.00;98871.97;5140095;28;20051;-61
2023/07/31 03:33:59;;;;;;;19.50;14.30;;;;;;;17.94;100.00;98876.09;5140216;28;20107;-62
2023/07/31 03:36:24;;;;;;;17.55;9.52;;;;;;;18.13;100.00;98878.16;5139911;27;20062;-63
2023/07/31 03:38:51;;;;;;;17.35;10.90;;;;;;;18.09;100.00;98867.13;5140322;28;20321;-64
2023/07/31 03:41:17;;;;;;;25.58;11.40;;;;;;;17.93;100.00;98872.53;5139839;28;20553;-63
2023/07/31 03:43:46;;;;;;;18.83;10.52;;;;;;;18.22;100.00;98870.03;5140287;28;20096;-63
2023/07/31 03:46:12;;;;;;;24.92;11.40;;;;;;;18.36;100.00;98866.25;5140051;28;20137;-64
2023/07/31 03:48:38;;;;;;;16.30;10.98;;;;;;;18.32;100.00;98869.06;5139930;28;20141;-63
2023/07/31 03:51:04;;;;;;;17.60;10.35;;;;;;;18.81;100.00;98847.13;5140020;28;20077;-63
2023/07/31 03:53:30;;;;;;;15.52;10.05;;;;;;;19.10;100.00;98815.97;5139517;28;20043;-64
2023/07/31 03:55:56;;;;;;;17.70;15.82;;;;;;;19.39;100.00;98763.31;5140087;28;20047;-64
2023/07/31 03:58:22;;;;;;;17.08;11.52;;;;;;;19.47;100.00;98716.66;5139710;28;20377;-64
2023/07/31 04:00:48;;;;;;;18.38;10.35;;;;;;;19.84;100.00;98667.25;5139975;28;20286;-63
2023/07/31 04:03:14;;;;;;;14.38;9.40;;;;;;;20.04;100.00;98566.91;5139720;28;20142;-63
2023/07/31 04:05:40;;;;;;;14.40;9.48;;;;;;;20.20;100.00;98508.38;5139890;28;20065;-63
2023/07/31 04:08:06;;;;;;;14.20;9.38;;;;;;;20.41;100.00;98409.47;5139361;27;20057;-62
2023/07/31 04:10:33;;;;;;;15.50;9.63;;;;;;;20.18;100.00;98388.38;5139838;28;20055;-61
2023/07/31 04:12:59;;;;;;;15.18;9.85;;;;;;;20.74;100.00;98362.59;5139305;28;20051;-61
2023/07/31 04:15:25;;;;;;;20.25;10.05;;;;;;;21.03;100.00;98248.09;5139389;28;20051;-61
2023/07/31 04:17:51;;;;;;;16.58;10.02;;;;;;;21.55;100.00;98073.50;5139492;28;20195;-62
2023/07/31 04:20:17;;;;;;;16.60;8.38;;;;;;;21.90;100.00;97871.53;5138606;27;20424;-64
2023/07/31 04:22:43;;;;;;;16.63;8.95;;;;;;;22.39;100.00;97770.59;5139520;28;20062;-64
2023/07/31 04:25:09;;;;;;;18.75;14.73;;;;;;;22.53;100.00;97663.72;5139226;28;20162;-64
2023/07/31 04:27:35;;;;;;;15.80;10.00;;;;;;;22.82;100.00;97608.28;5139345;28;20356;-64
2023/07/31 04:30:01;;;;;;;16.33;11.23;;;;;;;22.98;100.00;97560.28;5139153;28;20054;-63
2023/07/31 04:32:27;;;;;;;18.45;11.57;;;;;;;23.11;100.00;97566.28;5139408;28;20397;-62
2023/07/31 04:34:53;;;;;;;21.95;12.57;;;;;;;23.35;100.00;97487.78;5138868;28;20416;-62
2023/07/31 04:37:19;;;;;;;22.08;12.32;;;;;;;23.75;100.00;97482.59;5139232;27;20061;-64
2023/07/31 04:39:45;;;;;;;24.33;13.38;;;;;;;23.86;100.00;97457.53;5138921;28;20047;-62
2023/07/31 04:42:11;;;;;;;21.80;12.63;;;;;;;23.97;100.00;97431.66;5139318;28;20483;-62
2023/07/31 04:44:37;;;;;;;19.02;12.27;;;;;;;24.25;100.00;97409.44;5138764;28;20051;-62
2023/07/31 04:47:04;;;;;;;22.70;12.57;;;;;;;24.22;100.00;97397.22;5139028;28;20134;-64
2023/07/31 04:49:29;;;;;;;24.95;16.40;;;;;;;24.34;100.00;97403.66;5138984;28;20065;-61
2023/07/31 04:51:56;;;;;;;22.00;15.98;;;;;;;24.30;100.00;97392.69;5138587;28;20055;-63
2023/07/31 04:54:22;;;;;;;21.50;15.02;;;;;;;23.88;100.00;97413.03;5138867;28;20061;-61
2023/07/31 04:56:48;;;;;;;19.33;10.82;;;;;;;23.69;100.00;97426.59;5138585;28;20047;-61
2023/07/31 04:59:14;;;;;;;16.30;12.75;;;;;;;24.03;100.00;97410.84;5138591;28;20047;-63
2023/07/31 05:01:40;;;;;;;11.15;9.23;;;;;;;24.54;100.00;97385.94;5138386;28;20187;-64
2023/07/31 05:04:05;;;;;;;11.55;8.73;;;;;;;24.33;100.00;97388.13;5138846;28;20058;-65
2023/07/31 05:06:31;;;;;;;14.48;9.05;;;;;;;23.67;100.00;97403.94;5138478;27;20055;-61
2023/07/31 05:08:58;;;;;;;14.93;9.60;;;;;;;23.55;100.00;97450.59;5138744;28;20047;-63
2023/07/31 05:11:24;;;;;;;12.38;9.25;;;;;;;23.22;100.00;97518.91;5138341;28;20138;-65
2023/07/31 05:13:50;;;;;;;12.30;10.77;;;;;;;22.90;100.00;97596.22;5138567;28;20134;-63
2023/07/31 05:16:16;;;;;;;12.98;9.90;;;;;;;22.39;100.00;97717.53;5138061;28;20051;-63
2023/07/31 05:18:42;;;;;;;12.27;11.10;;;;;;;22.61;100.00;97769.44;5137890;28;20063;-62
2023/07/31 05:21:08;;;;;;;13.45;8.30;;;;;;;23.04;100.00;97678.50;5138121;28;20055;-66
2023/07/31 05:23:33;;;;;;;12.25;8.65;;;;;;;23.14;100.00;97659.59;5137986;28;20138;-66
2023/07/31 05:26:04;;;;;;;12.13;10.63;;;;;;;23.62;100.00;97572.47;5138327;28;20082;-65
2023/07/31 05:28:30;;;;;;;10.30;7.80;;;;;;;24.16;100.00;97486.78;5137934;28;20053;-66
2023/07/31 05:30:59;;;;;;;10.38;9.35;;;;;;;24.27;100.00;97418.88;5137484;27;20071;-64
2023/07/31 05:33:25;;;;;;;10.55;9.55;;;;;;;24.33;100.00;97413.31;5137768;28;20153;-66
2023/07/31 05:35:51;;;;;;;11.10;7.07;;;;;;;24.63;100.00;97389.31;5138265;28;20409;-67
2023/07/31 05:38:17;;;;;;;11.85;6.95;;;;;;;25.51;100.00;97400.50;5137858;27;20412;-67
2023/07/31 05:40:43;;;;;;;13.68;7.07;;;;;;;25.26;100.00;97444.31;5138345;28;20135;-66
2023/07/31 05:43:10;;;;;;;12.02;7.90;;;;;;;25.01;100.00;97408.78;5137724;28;20093;-64
2023/07/31 05:45:36;;;;;;;11.75;6.88;;;;;;;25.04;100.00;97408.53;5138017;28;21094;-67
2023/07/31 05:48:02;;;;;;;9.57;6.20;;;;;;;25.47;100.00;97489.00;5137990;28;20058;-62
2023/07/31 05:50:28;;;;;;;9.05;6.15;;;;;;;26.43;100.00;97585.34;5137677;28;20043;-65
2023/07/31 05:52:54;;;;;;;10.25;7.30;;;;;;;27.02;100.00;97685.50;5137877;28;20150;-66
2023/07/31 05:55:20;;;;;;;10.57;6.60;;;;;;;26.79;100.00;97735.38;5137648;28;20310;-66
2023/07/31 05:57:46;;;;;;;9.55;7.72;;;;;;;26.21;100.00;97690.78;5137874;28;20051;-63
2023/07/31 06:00:14;;;;;;;8.55;6.80;;;;;;;26.63;100.00;97689.09;5137580;28;20115;-65
2023/07/31 06:02:41;;;;;;;9.30;6.13;;;;;;;26.78;100.00;97705.72;5137768;28;20418;-66
2023/07/31 06:05:07;;;;;;;8.75;6.18;;;;;;;27.21;100.00;97739.97;5137293;28;20069;-67
2023/07/31 06:07:33;;;;;;;8.82;5.13;;;;;;;26.97;100.00;97732.03;5137645;27;20412;-65
2023/07/31 06:10:04;;;;;;;11.23;7.15;;;;;;;26.81;100.00;97667.38;5137298;28;20108;-64
2023/07/31 06:12:30;;;;;;;19.30;9.05;;;;;;;26.71;100.00;97690.13;5137257;28;20058;-63
2023/07/31 06:14:56;;;;;;;7.53;6.03;;;;;;;27.36;100.00;97792.44;5137163;28;20051;-66
2023/07/31 06:17:23;;;;;;;7.45;5.70;;;;;;;26.98;100.00;97795.44;5137089;28;20112;-64
2023/07/31 06:19:49;;;;;;;6.53;5.57;;;;;;;27.26;100.00;97839.75;5137470;28;20047;-65
2023/07/31 06:22:15;;;;;;;5.60;5.10;;;;;;;26.98;100.00;97820.75;5137201;28;20437;-60
2023/07/31 06:24:41;;;;;;;7.03;5.38;;;;;;;26.86;100.00;97757.34;5137354;28;20111;-62
2023/07/31 06:27:07;;;;;;;7.57;5.45;;;;;;;26.36;100.00;97799.34;5136982;28;20186;-66
2023/07/31 06:29:33;;;;;;;6.55;4.60;;;;;;;26.71;100.00;97779.31;5137483;28;20408;-62
2023/07/31 06:31:59;;;;;;;6.60;4.95;;;;;;;26.33;100.00;97761.06;5136832;28;20134;-60
2023/07/31 06:34:26;;;;;;;7.20;5.05;;;;;;;27.19;100.00;97804.44;5136919;28;20070;-61
2023/07/31 06:36:51;;;;;;;5.40;4.75;;;;;;;27.52;100.00;97881.69;5136840;27;20164;-61
2023/07/31 06:39:18;;;;;;;4.05;3.38;;;;;;;27.77;100.00;98003.81;5137279;28;20452;-62
2023/07/31 06:41:44;;;;;;;6.00;4.65;;;;;;;28.05;100.00;98034.81;5136863;28;20417;-66
2023/07/31 06:44:11;;;;;;;3.88;3.13;;;;;;;28.08;100.00;98084.50;5140089;27;20138;-66
2023/07/31 06:46:36;;;;;;;3.90;3.60;;;;;;;29.05;100.00;98105.75;5140782;28;20189;-60
2023/07/31 06:49:02;;;;;;;4.50;3.45;;;;;;;27.85;100.00;98097.78;5140440;28;20055;-63
2023/07/31 06:51:31;;;;;;;3.70;3.40;;;;;;;28.07;100.00;98096.28;5140682;28;20043;-64
2023/07/31 06:53:57;;;;;;;5.55;3.50;;;;;;;28.13;100.00;98068.91;5140264;28;20051;-66
2023/07/31 06:56:23;;;;;;;4.20;3.75;;;;;;;28.65;100.00;98047.88;5140677;28;20058;-65
2023/07/31 06:58:49;;;;;;;8.85;4.40;;;;;;;28.08;100.00;98033.03;5140426;28;20146;-64
2023/07/31 07:01:14;;;;;;;8.13;4.47;;;;;;;28.36;100.00;98011.25;5140573;28;20073;-61
2023/07/31 07:03:40;;;;;;;5.35;4.82;;;;;;;29.02;100.00;98034.22;5140177;28;20057;-60
2023/07/31 07:06:07;;;;;;;7.18;3.78;;;;;;;29.41;100.00;98040.97;5140622;28;20134;-61
2023/07/31 07:08:33;;;;;;;7.47;5.13;;;;;;;29.01;100.00;97983.94;5139927;28;20062;-64
2023/07/31 07:10:59;;;;;;;9.90;5.15;;;;;;;28.69;100.00;97998.41;5140250;28;20089;-64
2023/07/31 07:13:25;;;;;;;5.05;4.28;;;;;;;28.02;100.00;97967.47;5140124;28;20353;-63
2023/07/31 07:15:51;;;;;;;5.10;4.35;;;;;;;28.63;100.00;98017.38;5139927;28;20464;-61
2023/07/31 07:18:18;;;;;;;6.68;3.58;;;;;;;28.92;100.00;98088.56;5140247;28;20074;-62
2023/07/31 07:20:47;;;;;;;9.10;5.70;;;;;;;28.29;100.00;98078.63;5140115;28;20061;-61
2023/07/31 07:23:13;;;;;;;6.47;5.32;;;;;;;27.49;100.00;98036.75;5140091;28;20062;-64
2023/07/31 07:25:40;;;;;;;10.30;6.18;;;;;;;27.36;100.00;98018.31;5139936;28;20058;-62
2023/07/31 07:28:06;;;;;;;8.77;6.30;;;;;;;28.36;100.00;98053.53;5140197;28;20079;-64
2023/07/31 07:30:32;;;;;;;9.52;5.55;;;;;;;29.27;100.00;98093.63;5139918;28;20126;-62
2023/07/31 07:32:57;;;;;;;10.63;6.53;;;;;;;29.90;100.00;98106.97;5140347;28;20090;-62
2023/07/31 07:35:23;;;;;;;14.88;6.45;;;;;;;30.43;100.00;98152.13;5139681;28;20144;-61
2023/07/31 07:37:50;;;;;;;9.13;6.05;;;;;;;30.49;98.42;98206.56;5140037;27;20050;-60
2023/07/31 07:40:16;;;;;;;9.23;4.47;;;;;;;31.01;100.00;98168.88;5139884;28;20104;-66
2023/07/31 07:42:42;;;;;;;6.15;4.80;;;;;;;31.43;91.72;98205.56;5139769;28;20047;-60
2023/07/31 07:45:09;;;;;;;8.10;4.30;;;;;;;31.78;87.56;98213.13;5139654;28;20051;-62
2023/07/31 07:47:35;;;;;;;8.13;6.30;;;;;;;30.92;97.08;98197.50;5139668;28;20055;-63
2023/07/31 07:50:01;;;;;;;12.57;6.10;;;;;;;30.31;100.00;98184.59;5139719;28;20047;-65
2023/07/31 07:52:28;;;;;;;8.65;5.03;;;;;;;30.43;100.00;98181.16;5139412;28;20119;-66
2023/07/31 07:54:53;;;;;;;10.25;6.00;;;;;;;29.82;100.00;98168.13;5138821;27;20424;-64
2023/07/31 07:57:19;;;;;;;11.88;7.07;;;;;;;29.46;100.00;98147.47;5139545;28;20083;-64
2023/07/31 07:59:46;;;;;;;16.17;11.75;;;;;;;29.43;100.00;98118.22;5139757;28;20058;-65
2023/07/31 08:02:12;;;;;;;20.48;12.98;;;;;;;29.44;100.00;98105.63;5139194;28;20479;-65
2023/07/31 08:04:38;;;;;;;16.23;11.55;;;;;;;30.14;100.00;98117.59;5139783;28;20089;-65
2023/07/31 08:07:04;;;;;;;21.77;12.00;;;;;;;29.64;100.00;98137.66;5139072;27;20098;-62
2023/07/31 08:09:30;;;;;;;15.15;9.80;;;;;;;30.10;100.00;98158.75;5139400;28;20075;-62
2023/07/31 08:12:01;;;;;;;18.98;10.90;;;;;;;30.66;100.00;98167.63;5139330;28;20432;-63
2023/07/31 08:14:27;;;;;;;23.05;15.02;;;;;;;31.02;91.59;98206.41;5139096;28;20051;-61
2023/07/31 08:16:54;;;;;;;26.98;13.93;;;;;;;31.63;95.65;98200.16;5139092;28;20428;-60
2023/07/31 08:19:20;;;;;;;20.35;13.43;;;;;;;31.67;86.24;98214.03;5138894;28;20442;-62
2023/07/31 08:21:45;;;;;;;25.20;13.25;;;;;;;31.56;95.45;98208.50;5139256;28;20079;-60
2023/07/31 08:24:11;;;;;;;20.40;12.23;;;;;;;31.24;100.00;98189.22;5138930;28;20055;-61
2023/07/31 08:26:37;;;;;;;25.83;13.50;;;;;;;31.36;100.00;98199.19;5139213;28;20476;-63
2023/07/31 08:29:03;;;;;;;19.63;12.40;;;;;;;31.13;100.00;98201.44;5138853;28;20145;-64
2023/07/31 08:31:29;;;;;;;21.98;12.90;;;;;;;31.16;100.00;98199.63;5139266;28;20051;-65
2023/07/31 08:33:56;;;;;;;15.63;10.82;;;;;;;31.15;96.00;98206.56;5138711;28;20421;-65
2023/07/31 08:36:22;;;;;;;18.30;10.05;;;;;;;31.32;81.18;98234.69;5139060;27;20134;-65
2023/07/31 08:38:49;;;;;;;13.70;8.95;;;;;;;31.60;81.37;98221.06;5138907;28;20129;-60
2023/07/31 08:41:17;;;;;;;17.42;9.23;;;;;;;30.22;87.06;98223.19;5138866;28;20107;-61
2023/07/31 08:43:45;;;;;;;14.82;8.02;;;;;;;31.18;91.30;98209.09;5138933;28;20047;-61
2023/07/31 08:46:11;;;;;;;13.52;7.60;;;;;;;31.11;86.04;98221.00;5138565;28;20047;-59
2023/07/31 08:48:38;;;;;;;13.13;6.88;;;;;;;30.48;88.68;98214.28;5138967;28;20054;-61
2023/07/31 08:51:04;;;;;;;10.50;6.00;;;;;;;30.48;89.26;98217.09;5138583;28;20066;-64
2023/07/31 08:53:30;;;;;;;14.27;7.43;;;;;;;31.26;77.46;98220.63;5138883;28;20282;-62
2023/07/31 08:55:59;;;;;;;10.73;6.07;;;;;;;31.36;77.71;98215.41;5138069;28;20092;-65
2023/07/31 08:58:27;;;;;;;13.00;6.38;;;;;;;31.87;79.81;98213.53;5138706;28;20043;-65
2023/07/31 09:00:55;;;;;;;9.80;5.53;;;;;;;31.16;77.87;98216.59;5138415;28;20074;-61
2023/07/31 09:03:24;;;;;;;8.82;5.82;;;;;;;32.53;82.57;98203.91;5138877;28;20043;-62
2023/07/31 09:05:51;;;;;;;8.30;4.57;;;;;;;32.71;79.52;98205.16;5138475;27;20336;-64
2023/07/31 09:08:19;;;;;;;6.40;4.50;;;;;;;32.52;78.98;98208.03;5138416;27;20306;-61
2023/07/31 09:10:46;;;;;;;8.18;4.13;;;;;;;32.92;79.31;98211.00;5138409;28;20257;-62
2023/07/31 09:13:12;;;;;;;10.75;4.50;;;;;;;33.25;80.13;98207.59;5138013;28;20481;-63
2023/07/31 09:15:39;;;;;;;6.70;5.13;;;;;;;33.03;79.27;98213.69;5138340;28;20077;-66
2023/07/31 09:18:07;;;;;;;11.73;4.47;;;;;;;33.54;74.92;98201.44;5138185;28;20138;-62
2023/07/31 09:20:33;;;;;;;9.13;3.75;;;;;;;32.48;77.42;98196.22;5138459;28;20054;-65
2023/07/31 09:23:07;;;;;;;10.70;3.90;;;;;;;30.74;81.51;98192.50;5137963;28;20146;-65
2023/07/31 09:25:34;;;;;;;5.50;3.95;;;;;;;31.17;78.36;98192.66;5138395;28;20055;-62
2023/07/31 09:28:01;;;;;;;5.88;3.50;;;;;;;32.62;75.26;98194.22;5137780;28;20483;-65
2023/07/31 09:30:27;;;;;;;9.68;3.35;;;;;;;32.41;76.00;98183.41;5138210;28;20043;-62
2023/07/31 09:33:01;;;;;;;5.95;3.25;;;;;;;32.06;75.42;98181.63;5138058;28;20192;-66
2023/07/31 09:35:29;;;;;;;6.32;3.30;;;;;;;31.45;77.46;98183.09;5137826;28;20192;-63
2023/07/31 09:37:57;;;;;;;5.78;3.17;;;;;;;31.99;78.53;98177.31;5137753;27;20155;-60
2023/07/31 09:40:28;;;;;;;7.82;3.17;;;;;;;31.61;82.50;98170.81;5137812;28;20078;-64
2023/07/31 09:42:57;;;;;;;5.03;2.50;;;;;;;32.37;75.83;98185.81;5138009;28;20050;-65
2023/07/31 09:45:23;;;;;;;3.85;2.55;;;;;;;31.31;80.29;98173.72;5137626;28;20432;-64
2023/07/31 09:47:49;;;;;;;3.55;2.55;;;;;;;31.90;86.64;98172.03;5137815;28;20046;-66
2023/07/31 09:50:15;;;;;;;6.25;3.05;;;;;;;31.75;79.02;98183.00;5137665;28;20065;-70
2023/07/31 09:52:41;;;;;;;7.05;3.20;;;;;;;32.26;77.34;98192.41;5137902;28;20069;-62
2023/07/31 09:55:08;;;;;;;5.40;3.17;;;;;;;31.84;74.39;98197.56;5137130;28;20139;-62
2023/07/31 09:57:34;;;;;;;4.03;2.88;;;;;;;31.96;77.48;98191.81;5137311;28;20047;-61
2023/07/31 10:00:01;;;;;;;8.88;3.10;;;;;;;31.37;80.00;98191.44;5137563;28;20379;-67
2023/07/31 10:02:29;;;;;;;10.38;3.10;;;;;;;31.13;87.29;98189.34;5137271;28;20047;-60
2023/07/31 10:04:58;;;;;;;6.20;4.22;;;;;;;30.32;94.81;98171.97;5137726;28;20142;-67
2023/07/31 10:07:28;;;;;;;6.88;3.85;;;;;;;30.43;92.34;98181.16;5137342;27;20336;-63
2023/07/31 10:09:56;;;;;;;5.50;3.00;;;;;;;30.86;91.91;98171.34;5137477;28;20183;-65
2023/07/31 10:12:26;;;;;;;3.53;2.55;;;;;;;30.43;90.76;98171.91;5137362;28;20133;-61
2023/07/31 10:14:54;;;;;;;3.10;2.45;;;;;;;31.22;88.23;98172.00;5137503;28;20134;-66
2023/07/31 10:17:21;;;;;;;3.08;2.78;;;;;;;31.21;80.17;98183.84;5136557;27;20134;-69
2023/07/31 10:19:48;;;;;;;2.70;2.50;;;;;;;32.18;84.21;98170.88;5137784;28;20157;-67
2023/07/31 10:22:14;;;;;;;3.35;2.55;;;;;;;31.38;75.27;98173.16;5137144;28;20130;-66
2023/07/31 10:24:42;;;;;;;2.88;2.60;;;;;;;31.78;74.76;98179.09;5137463;28;20055;-66
2023/07/31 10:27:09;;;;;;;2.88;2.67;;;;;;;31.72;77.99;98173.50;5137195;28;20059;-64
2023/07/31 10:29:37;;;;;;;3.90;2.47;;;;;;;32.35;75.02;98177.81;5137250;28;20051;-66
2023/07/31 10:32:06;;;;;;;11.20;3.15;;;;;;;32.92;72.04;98174.84;5137549;28;20073;-67
2023/07/31 10:34:33;;;;;;;13.82;3.42;;;;;;;32.80;71.51;98168.63;5136957;28;20080;-68
2023/07/31 10:37:22;;;;;;;5.10;2.50;;;;;;;32.14;69.59;98170.41;5137312;27;20110;-71
2023/07/31 10:39:59;;;;;;;5.53;2.78;;;;;;;32.04;73.95;98164.38;5136953;28;20057;-69
2023/07/31 10:42:30;;;;;;;7.47;3.20;;;;;;;31.92;72.96;98171.47;5137288;28;20058;-66
2023/07/31 10:44:58;;;;;;;5.82;3.08;;;;;;;31.36;73.79;98164.44;5137139;28;20354;-60
2023/07/31 10:47:24;;;;;;;8.50;2.50;;;;;;;31.14;74.61;98162.56;5137093;28;20059;-61
2023/07/31 10:49:51;;;;;;;3.03;2.70;;;;;;;29.88;78.86;98159.63;5137344;28;20051;-62
2023/07/31 10:52:22;;;;;;;4.38;2.40;;;;;;;31.11;83.59;98152.31;5136966;28;20499;-62
2023/07/31 10:54:48;;;;;;;5.95;2.83;;;;;;;31.93;80.29;98159.63;5137079;28;20047;-61
2023/07/31 10:57:21;;;;;;;4.55;2.65;;;;;;;32.13;72.30;98157.56;5136810;28;20078;-63
2023/07/31 10:59:48;;;;;;;4.30;2.38;;;;;;;31.00;74.60;98156.03;5137054;28;20083;-62
2023/07/31 11:02:25;;;;;;;4.35;2.38;;;;;;;29.22;79.73;98150.84;5136623;28;20115;-69
2023/07/31 11:05:07;;;;;;;2.88;2.60;;;;;;;30.08;77.52;98150.78;5137188;28;20074;-64
2023/07/31 11:07:47;;;;;;;39.67;5.82;;;;;;;30.99;77.07;98137.50;5136589;27;20367;-65
2023/07/31 11:10:17;;;;;;;7.60;2.95;;;;;;;30.01;80.07;98143.63;5136675;28;20396;-67
2023/07/31 11:12:43;;;;;;;8.13;4.50;;;;;;;30.45;79.93;98138.19;5136608;28;20413;-70
2023/07/31 11:15:11;;;;;;;4.50;2.50;;;;;;;30.46;81.92;98129.22;5136456;28;20141;-61
2023/07/31 11:17:38;;;;;;;2.60;2.30;;;;;;;30.05;78.35;98125.63;5136473;28;20051;-62